sensor_id;sensor_type;location;lat;lon;timestamp;P1;durP1;ratioP1;P2;durP2;ratioP2
24901;SDS011;31328;51.402;0.016;2023-04-28T00:00:09;9.57;;;6.40;;
24901;SDS011;31328;51.402;0.016;2023-04-28T00:02:36;8.33;;;6.50;;
24901;SDS011;31328;51.402;0.016;2023-04-28T00:05:03;8.73;;;6.40;;
24901;SDS011;31328;51.402;0.016;2023-04-28T00:07:30;7.97;;;6.27;;
24901;SDS011;31328;51.402;0.016;2023-04-28T00:09:56;8.43;;;6.43;;
24901;SDS011;31328;51.402;0.016;2023-04-28T00:12:22;7.60;;;5.87;;
24901;SDS011;31328;51.402;0.016;2023-04-28T00:14:49;8.30;;;6.00;;
24901;SDS011;31328;51.402;0.016;2023-04-28T00:17:15;8.17;;;6.43;;
24901;SDS011;31328;51.402;0.016;2023-04-28T00:19:41;8.77;;;5.63;;
24901;SDS011;31328;51.402;0.016;2023-04-28T00:22:08;7.93;;;5.30;;
24901;SDS011;31328;51.402;0.016;2023-04-28T00:24:34;8.27;;;5.93;;
24901;SDS011;31328;51.402;0.016;2023-04-28T00:27:01;6.83;;;5.37;;
24901;SDS011;31328;51.402;0.016;2023-04-28T00:29:28;6.27;;;4.87;;
24901;SDS011;31328;51.402;0.016;2023-04-28T00:31:54;6.37;;;5.30;;
24901;SDS011;31328;51.402;0.016;2023-04-28T00:34:21;6.57;;;4.60;;
24901;SDS011;31328;51.402;0.016;2023-04-28T00:36:47;5.10;;;4.13;;
24901;SDS011;31328;51.402;0.016;2023-04-28T00:39:14;5.37;;;3.67;;
24901;SDS011;31328;51.402;0.016;2023-04-28T00:41:43;5.37;;;3.67;;
24901;SDS011;31328;51.402;0.016;2023-04-28T00:44:09;6.20;;;4.20;;
24901;SDS011;31328;51.402;0.016;2023-04-28T00:46:36;4.03;;;3.07;;
24901;SDS011;31328;51.402;0.016;2023-04-28T00:49:02;4.00;;;3.10;;
24901;SDS011;31328;51.402;0.016;2023-04-28T00:51:30;3.87;;;3.47;;
24901;SDS011;31328;51.402;0.016;2023-04-28T00:53:58;3.27;;;2.60;;
24901;SDS011;31328;51.402;0.016;2023-04-28T00:56:24;3.90;;;2.58;;
24901;SDS011;31328;51.402;0.016;2023-04-28T00:58:56;3.13;;;2.50;;
24901;SDS011;31328;51.402;0.016;2023-04-28T01:01:22;3.13;;;2.50;;
24901;SDS011;31328;51.402;0.016;2023-04-28T01:03:49;3.43;;;2.30;;
24901;SDS011;31328;51.402;0.016;2023-04-28T01:06:16;3.53;;;2.60;;
24901;SDS011;31328;51.402;0.016;2023-04-28T01:08:46;2.53;;;2.33;;
24901;SDS011;31328;51.402;0.016;2023-04-28T01:11:14;2.80;;;2.28;;
24901;SDS011;31328;51.402;0.016;2023-04-28T01:14:00;2.83;;;2.40;;
24901;SDS011;31328;51.402;0.016;2023-04-28T01:16:31;3.30;;;2.60;;
24901;SDS011;31328;51.402;0.016;2023-04-28T01:18:59;3.03;;;2.37;;
24901;SDS011;31328;51.402;0.016;2023-04-28T01:21:29;2.63;;;2.23;;
24901;SDS011;31328;51.402;0.016;2023-04-28T01:24:00;3.00;;;2.50;;
24901;SDS011;31328;51.402;0.016;2023-04-28T01:26:27;2.53;;;2.33;;
24901;SDS011;31328;51.402;0.016;2023-04-28T01:28:53;2.77;;;2.27;;
24901;SDS011;31328;51.402;0.016;2023-04-28T01:31:20;3.43;;;2.57;;
24901;SDS011;31328;51.402;0.016;2023-04-28T01:33:46;3.50;;;2.73;;
24901;SDS011;31328;51.402;0.016;2023-04-28T01:36:12;2.90;;;2.47;;
24901;SDS011;31328;51.402;0.016;2023-04-28T01:38:39;3.80;;;2.93;;
24901;SDS011;31328;51.402;0.016;2023-04-28T01:41:05;4.00;;;2.77;;
24901;SDS011;31328;51.402;0.016;2023-04-28T01:43:32;3.90;;;3.10;;
24901;SDS011;31328;51.402;0.016;2023-04-28T01:45:58;3.78;;;3.05;;
24901;SDS011;31328;51.402;0.016;2023-04-28T01:48:24;3.87;;;3.33;;
24901;SDS011;31328;51.402;0.016;2023-04-28T01:50:50;4.27;;;3.47;;
24901;SDS011;31328;51.402;0.016;2023-04-28T01:53:17;4.60;;;3.63;;
24901;SDS011;31328;51.402;0.016;2023-04-28T01:55:46;4.40;;;3.77;;
24901;SDS011;31328;51.402;0.016;2023-04-28T01:58:13;5.60;;;4.60;;
24901;SDS011;31328;51.402;0.016;2023-04-28T02:00:39;5.70;;;4.33;;
24901;SDS011;31328;51.402;0.016;2023-04-28T02:03:06;6.10;;;4.82;;
24901;SDS011;31328;51.402;0.016;2023-04-28T02:05:34;6.55;;;5.22;;
24901;SDS011;31328;51.402;0.016;2023-04-28T02:08:01;6.80;;;5.05;;
24901;SDS011;31328;51.402;0.016;2023-04-28T02:10:29;6.43;;;5.03;;
24901;SDS011;31328;51.402;0.016;2023-04-28T02:12:55;6.60;;;5.53;;
24901;SDS011;31328;51.402;0.016;2023-04-28T02:15:22;6.97;;;5.40;;
24901;SDS011;31328;51.402;0.016;2023-04-28T02:17:48;7.93;;;5.90;;
24901;SDS011;31328;51.402;0.016;2023-04-28T02:20:14;8.63;;;6.17;;
24901;SDS011;31328;51.402;0.016;2023-04-28T02:22:41;7.60;;;5.90;;
24901;SDS011;31328;51.402;0.016;2023-04-28T02:25:07;8.17;;;6.07;;
24901;SDS011;31328;51.402;0.016;2023-04-28T02:27:36;8.70;;;6.30;;
24901;SDS011;31328;51.402;0.016;2023-04-28T02:30:03;8.27;;;6.43;;
24901;SDS011;31328;51.402;0.016;2023-04-28T02:32:31;9.73;;;6.80;;
24901;SDS011;31328;51.402;0.016;2023-04-28T02:34:57;7.97;;;6.13;;
24901;SDS011;31328;51.402;0.016;2023-04-28T02:37:25;9.57;;;6.00;;
24901;SDS011;31328;51.402;0.016;2023-04-28T02:39:51;9.20;;;6.82;;
24901;SDS011;31328;51.402;0.016;2023-04-28T02:42:19;9.25;;;7.55;;
24901;SDS011;31328;51.402;0.016;2023-04-28T02:44:46;9.43;;;7.40;;
24901;SDS011;31328;51.402;0.016;2023-04-28T02:47:13;10.02;;;6.93;;
24901;SDS011;31328;51.402;0.016;2023-04-28T02:49:39;9.93;;;6.95;;
24901;SDS011;31328;51.402;0.016;2023-04-28T02:52:05;9.43;;;7.43;;
24901;SDS011;31328;51.402;0.016;2023-04-28T02:54:32;8.52;;;6.82;;
24901;SDS011;31328;51.402;0.016;2023-04-28T02:57:00;9.15;;;7.43;;
24901;SDS011;31328;51.402;0.016;2023-04-28T02:59:28;10.27;;;7.27;;
24901;SDS011;31328;51.402;0.016;2023-04-28T03:01:55;11.07;;;8.20;;
24901;SDS011;31328;51.402;0.016;2023-04-28T03:04:21;11.13;;;8.30;;
24901;SDS011;31328;51.402;0.016;2023-04-28T03:06:49;10.23;;;7.90;;
24901;SDS011;31328;51.402;0.016;2023-04-28T03:09:15;10.00;;;7.82;;
24901;SDS011;31328;51.402;0.016;2023-04-28T03:11:41;10.90;;;7.43;;
24901;SDS011;31328;51.402;0.016;2023-04-28T03:14:08;10.48;;;7.18;;
24901;SDS011;31328;51.402;0.016;2023-04-28T03:16:34;10.27;;;8.23;;
24901;SDS011;31328;51.402;0.016;2023-04-28T03:19:01;10.10;;;7.10;;
24901;SDS011;31328;51.402;0.016;2023-04-28T03:21:27;7.72;;;5.68;;
24901;SDS011;31328;51.402;0.016;2023-04-28T03:23:54;8.80;;;7.00;;
24901;SDS011;31328;51.402;0.016;2023-04-28T03:26:21;9.02;;;6.65;;
24901;SDS011;31328;51.402;0.016;2023-04-28T03:28:49;8.73;;;5.72;;
24901;SDS011;31328;51.402;0.016;2023-04-28T03:31:16;7.95;;;5.82;;
24901;SDS011;31328;51.402;0.016;2023-04-28T03:33:43;6.15;;;5.47;;
24901;SDS011;31328;51.402;0.016;2023-04-28T03:36:12;8.07;;;6.15;;
24901;SDS011;31328;51.402;0.016;2023-04-28T03:38:38;10.10;;;6.63;;
24901;SDS011;31328;51.402;0.016;2023-04-28T03:41:05;8.33;;;5.80;;
24901;SDS011;31328;51.402;0.016;2023-04-28T03:43:50;8.32;;;5.82;;
24901;SDS011;31328;51.402;0.016;2023-04-28T03:46:23;9.10;;;5.97;;
24901;SDS011;31328;51.402;0.016;2023-04-28T03:48:51;7.65;;;6.07;;
24901;SDS011;31328;51.402;0.016;2023-04-28T03:51:18;7.55;;;6.00;;
24901;SDS011;31328;51.402;0.016;2023-04-28T03:53:45;8.70;;;6.05;;
24901;SDS011;31328;51.402;0.016;2023-04-28T03:56:12;7.90;;;5.97;;
24901;SDS011;31328;51.402;0.016;2023-04-28T03:58:38;8.38;;;6.07;;
24901;SDS011;31328;51.402;0.016;2023-04-28T04:01:04;10.60;;;6.57;;
24901;SDS011;31328;51.402;0.016;2023-04-28T04:03:31;8.53;;;6.50;;
24901;SDS011;31328;51.402;0.016;2023-04-28T04:05:57;9.73;;;6.93;;
24901;SDS011;31328;51.402;0.016;2023-04-28T04:08:23;9.00;;;6.40;;
24901;SDS011;31328;51.402;0.016;2023-04-28T04:10:50;7.77;;;5.83;;
24901;SDS011;31328;51.402;0.016;2023-04-28T04:13:26;7.95;;;5.30;;
24901;SDS011;31328;51.402;0.016;2023-04-28T04:15:52;5.88;;;4.57;;
24901;SDS011;31328;51.402;0.016;2023-04-28T04:18:21;7.57;;;4.78;;
24901;SDS011;31328;51.402;0.016;2023-04-28T04:21:06;6.35;;;4.55;;
24901;SDS011;31328;51.402;0.016;2023-04-28T04:23:33;4.95;;;3.97;;
24901;SDS011;31328;51.402;0.016;2023-04-28T04:26:00;5.35;;;3.05;;
24901;SDS011;31328;51.402;0.016;2023-04-28T04:28:26;6.67;;;2.60;;
24901;SDS011;31328;51.402;0.016;2023-04-28T04:30:53;3.30;;;2.37;;
24901;SDS011;31328;51.402;0.016;2023-04-28T04:33:19;3.53;;;2.50;;
24901;SDS011;31328;51.402;0.016;2023-04-28T04:35:46;3.28;;;2.20;;
24901;SDS011;31328;51.402;0.016;2023-04-28T04:38:12;3.55;;;1.90;;
24901;SDS011;31328;51.402;0.016;2023-04-28T04:40:39;1.58;;;1.10;;
24901;SDS011;31328;51.402;0.016;2023-04-28T04:43:05;2.13;;;1.30;;
24901;SDS011;31328;51.402;0.016;2023-04-28T04:45:37;1.98;;;1.30;;
24901;SDS011;31328;51.402;0.016;2023-04-28T04:48:05;1.03;;;0.90;;
24901;SDS011;31328;51.402;0.016;2023-04-28T04:50:31;1.20;;;0.83;;
24901;SDS011;31328;51.402;0.016;2023-04-28T04:52:58;2.17;;;0.83;;
24901;SDS011;31328;51.402;0.016;2023-04-28T04:55:24;2.90;;;0.90;;
24901;SDS011;31328;51.402;0.016;2023-04-28T04:57:51;1.97;;;0.80;;
24901;SDS011;31328;51.402;0.016;2023-04-28T05:00:37;0.50;;;0.40;;
24901;SDS011;31328;51.402;0.016;2023-04-28T05:03:04;0.93;;;0.60;;
24901;SDS011;31328;51.402;0.016;2023-04-28T05:05:31;0.77;;;0.40;;
24901;SDS011;31328;51.402;0.016;2023-04-28T05:08:10;1.60;;;0.40;;
24901;SDS011;31328;51.402;0.016;2023-04-28T05:10:37;0.63;;;0.50;;
24901;SDS011;31328;51.402;0.016;2023-04-28T05:13:03;0.93;;;0.60;;
24901;SDS011;31328;51.402;0.016;2023-04-28T05:15:29;1.30;;;0.55;;
24901;SDS011;31328;51.402;0.016;2023-04-28T05:18:14;0.93;;;0.57;;
24901;SDS011;31328;51.402;0.016;2023-04-28T05:20:41;1.37;;;0.60;;
24901;SDS011;31328;51.402;0.016;2023-04-28T05:23:07;0.77;;;0.50;;
24901;SDS011;31328;51.402;0.016;2023-04-28T05:25:35;1.40;;;0.70;;
24901;SDS011;31328;51.402;0.016;2023-04-28T05:28:01;0.80;;;0.80;;
24901;SDS011;31328;51.402;0.016;2023-04-28T05:30:32;0.97;;;0.73;;
24901;SDS011;31328;51.402;0.016;2023-04-28T05:32:59;1.97;;;0.80;;
24901;SDS011;31328;51.402;0.016;2023-04-28T05:35:25;0.90;;;0.80;;
24901;SDS011;31328;51.402;0.016;2023-04-28T05:37:52;2.03;;;0.80;;
24901;SDS011;31328;51.402;0.016;2023-04-28T05:40:20;0.70;;;0.60;;
24901;SDS011;31328;51.402;0.016;2023-04-28T05:42:48;1.13;;;0.90;;
24901;SDS011;31328;51.402;0.016;2023-04-28T05:45:14;0.90;;;0.70;;
24901;SDS011;31328;51.402;0.016;2023-04-28T05:47:41;1.70;;;0.60;;
24901;SDS011;31328;51.402;0.016;2023-04-28T05:50:07;0.90;;;0.80;;
24901;SDS011;31328;51.402;0.016;2023-04-28T05:52:34;2.37;;;0.80;;
24901;SDS011;31328;51.402;0.016;2023-04-28T05:55:01;0.88;;;0.70;;
24901;SDS011;31328;51.402;0.016;2023-04-28T05:57:27;0.77;;;0.77;;
24901;SDS011;31328;51.402;0.016;2023-04-28T05:59:54;1.70;;;0.80;;
24901;SDS011;31328;51.402;0.016;2023-04-28T06:02:20;1.90;;;0.70;;
24901;SDS011;31328;51.402;0.016;2023-04-28T06:04:46;0.90;;;0.70;;
24901;SDS011;31328;51.402;0.016;2023-04-28T06:07:13;1.27;;;0.70;;
24901;SDS011;31328;51.402;0.016;2023-04-28T06:09:39;1.10;;;0.60;;
24901;SDS011;31328;51.402;0.016;2023-04-28T06:12:06;0.80;;;0.70;;
24901;SDS011;31328;51.402;0.016;2023-04-28T06:14:33;1.08;;;0.50;;
24901;SDS011;31328;51.402;0.016;2023-04-28T06:17:02;0.98;;;0.73;;
24901;SDS011;31328;51.402;0.016;2023-04-28T06:19:29;1.40;;;0.60;;
24901;SDS011;31328;51.402;0.016;2023-04-28T06:21:55;1.40;;;0.47;;
24901;SDS011;31328;51.402;0.016;2023-04-28T06:24:21;0.67;;;0.57;;
24901;SDS011;31328;51.402;0.016;2023-04-28T06:26:48;1.00;;;0.70;;
24901;SDS011;31328;51.402;0.016;2023-04-28T06:29:15;0.77;;;0.55;;
24901;SDS011;31328;51.402;0.016;2023-04-28T06:31:41;0.60;;;0.47;;
24901;SDS011;31328;51.402;0.016;2023-04-28T06:34:07;0.90;;;0.60;;
24901;SDS011;31328;51.402;0.016;2023-04-28T06:36:35;1.07;;;0.60;;
24901;SDS011;31328;51.402;0.016;2023-04-28T06:39:03;1.00;;;0.60;;
24901;SDS011;31328;51.402;0.016;2023-04-28T06:41:29;0.52;;;0.50;;
24901;SDS011;31328;51.402;0.016;2023-04-28T06:43:57;0.93;;;0.60;;
24901;SDS011;31328;51.402;0.016;2023-04-28T06:46:25;1.15;;;0.50;;
24901;SDS011;31328;51.402;0.016;2023-04-28T06:48:52;0.40;;;0.40;;
24901;SDS011;31328;51.402;0.016;2023-04-28T06:51:18;0.40;;;0.40;;
24901;SDS011;31328;51.402;0.016;2023-04-28T06:53:44;0.40;;;0.30;;
24901;SDS011;31328;51.402;0.016;2023-04-28T06:56:11;0.50;;;0.40;;
24901;SDS011;31328;51.402;0.016;2023-04-28T06:58:38;0.40;;;0.40;;
24901;SDS011;31328;51.402;0.016;2023-04-28T07:01:05;0.30;;;0.30;;
24901;SDS011;31328;51.402;0.016;2023-04-28T07:03:31;0.50;;;0.50;;
24901;SDS011;31328;51.402;0.016;2023-04-28T07:05:57;0.75;;;0.75;;
24901;SDS011;31328;51.402;0.016;2023-04-28T07:08:24;0.85;;;0.68;;
24901;SDS011;31328;51.402;0.016;2023-04-28T07:10:50;0.60;;;0.52;;
24901;SDS011;31328;51.402;0.016;2023-04-28T07:13:17;2.17;;;0.60;;
24901;SDS011;31328;51.402;0.016;2023-04-28T07:15:43;0.60;;;0.60;;
24901;SDS011;31328;51.402;0.016;2023-04-28T07:18:09;0.68;;;0.68;;
24901;SDS011;31328;51.402;0.016;2023-04-28T07:20:35;1.27;;;0.70;;
24901;SDS011;31328;51.402;0.016;2023-04-28T07:23:02;0.50;;;0.50;;
24901;SDS011;31328;51.402;0.016;2023-04-28T07:25:28;0.93;;;0.70;;
24901;SDS011;31328;51.402;0.016;2023-04-28T07:27:54;2.42;;;0.63;;
24901;SDS011;31328;51.402;0.016;2023-04-28T07:30:21;0.63;;;0.57;;
24901;SDS011;31328;51.402;0.016;2023-04-28T07:32:47;1.70;;;0.60;;
24901;SDS011;31328;51.402;0.016;2023-04-28T07:35:13;1.80;;;0.70;;
24901;SDS011;31328;51.402;0.016;2023-04-28T07:37:40;0.95;;;0.50;;
24901;SDS011;31328;51.402;0.016;2023-04-28T07:40:06;0.70;;;0.68;;
24901;SDS011;31328;51.402;0.016;2023-04-28T07:42:33;1.10;;;0.65;;
24901;SDS011;31328;51.402;0.016;2023-04-28T07:44:59;1.08;;;0.88;;
24901;SDS011;31328;51.402;0.016;2023-04-28T07:47:25;2.75;;;1.13;;
24901;SDS011;31328;51.402;0.016;2023-04-28T07:49:53;2.28;;;0.90;;
24901;SDS011;31328;51.402;0.016;2023-04-28T07:52:20;0.90;;;0.60;;
24901;SDS011;31328;51.402;0.016;2023-04-28T07:54:46;0.80;;;0.70;;
24901;SDS011;31328;51.402;0.016;2023-04-28T07:57:12;0.60;;;0.60;;
24901;SDS011;31328;51.402;0.016;2023-04-28T07:59:39;0.57;;;0.57;;
24901;SDS011;31328;51.402;0.016;2023-04-28T08:02:05;1.65;;;0.57;;
24901;SDS011;31328;51.402;0.016;2023-04-28T08:04:32;0.80;;;0.50;;
24901;SDS011;31328;51.402;0.016;2023-04-28T08:06:59;1.63;;;0.68;;
24901;SDS011;31328;51.402;0.016;2023-04-28T08:09:26;1.15;;;0.60;;
24901;SDS011;31328;51.402;0.016;2023-04-28T08:11:52;1.55;;;0.50;;
24901;SDS011;31328;51.402;0.016;2023-04-28T08:14:18;0.32;;;0.32;;
24901;SDS011;31328;51.402;0.016;2023-04-28T08:16:46;0.52;;;0.40;;
24901;SDS011;31328;51.402;0.016;2023-04-28T08:19:13;0.35;;;0.32;;
24901;SDS011;31328;51.402;0.016;2023-04-28T08:21:39;0.65;;;0.50;;
24901;SDS011;31328;51.402;0.016;2023-04-28T08:24:05;0.93;;;0.50;;
24901;SDS011;31328;51.402;0.016;2023-04-28T08:26:32;0.50;;;0.50;;
24901;SDS011;31328;51.402;0.016;2023-04-28T08:28:59;1.25;;;0.30;;
24901;SDS011;31328;51.402;0.016;2023-04-28T08:31:25;0.52;;;0.30;;
24901;SDS011;31328;51.402;0.016;2023-04-28T08:33:51;0.20;;;0.20;;
24901;SDS011;31328;51.402;0.016;2023-04-28T08:36:18;0.32;;;0.17;;
24901;SDS011;31328;51.402;0.016;2023-04-28T08:38:44;0.40;;;0.10;;
24901;SDS011;31328;51.402;0.016;2023-04-28T08:41:11;0.63;;;0.20;;
24901;SDS011;31328;51.402;0.016;2023-04-28T08:43:39;0.20;;;0.20;;
24901;SDS011;31328;51.402;0.016;2023-04-28T08:46:08;0.47;;;0.40;;
24901;SDS011;31328;51.402;0.016;2023-04-28T08:48:39;0.40;;;0.13;;
24901;SDS011;31328;51.402;0.016;2023-04-28T08:51:06;0.32;;;0.20;;
24901;SDS011;31328;51.402;0.016;2023-04-28T08:53:37;0.35;;;0.30;;
24901;SDS011;31328;51.402;0.016;2023-04-28T08:56:05;0.20;;;0.20;;
24901;SDS011;31328;51.402;0.016;2023-04-28T08:58:34;0.13;;;0.10;;
24901;SDS011;31328;51.402;0.016;2023-04-28T09:01:02;0.20;;;0.20;;
24901;SDS011;31328;51.402;0.016;2023-04-28T09:03:29;0.40;;;0.20;;
24901;SDS011;31328;51.402;0.016;2023-04-28T09:05:57;0.40;;;0.20;;
24901;SDS011;31328;51.402;0.016;2023-04-28T09:08:24;0.10;;;0.10;;
24901;SDS011;31328;51.402;0.016;2023-04-28T09:11:06;0.43;;;0.43;;
24901;SDS011;31328;51.402;0.016;2023-04-28T09:13:33;0.40;;;0.20;;
24901;SDS011;31328;51.402;0.016;2023-04-28T09:16:01;0.20;;;0.20;;
24901;SDS011;31328;51.402;0.016;2023-04-28T09:18:29;0.45;;;0.25;;
24901;SDS011;31328;51.402;0.016;2023-04-28T09:21:04;0.40;;;0.28;;
24901;SDS011;31328;51.402;0.016;2023-04-28T09:23:32;0.60;;;0.30;;
24901;SDS011;31328;51.402;0.016;2023-04-28T09:26:00;0.30;;;0.30;;
24901;SDS011;31328;51.402;0.016;2023-04-28T09:28:29;0.40;;;0.38;;
24901;SDS011;31328;51.402;0.016;2023-04-28T09:30:56;0.10;;;0.10;;
24901;SDS011;31328;51.402;0.016;2023-04-28T09:33:22;0.45;;;0.28;;
24901;SDS011;31328;51.402;0.016;2023-04-28T09:35:49;0.70;;;0.20;;
24901;SDS011;31328;51.402;0.016;2023-04-28T09:38:16;0.32;;;0.20;;
24901;SDS011;31328;51.402;0.016;2023-04-28T09:45:54;0.10;;;0.10;;
24901;SDS011;31328;51.402;0.016;2023-04-28T09:48:25;0.20;;;0.20;;
24901;SDS011;31328;51.402;0.016;2023-04-28T09:51:00;0.73;;;0.10;;
24901;SDS011;31328;51.402;0.016;2023-04-28T09:53:28;0.28;;;0.10;;
24901;SDS011;31328;51.402;0.016;2023-04-28T09:55:55;0.85;;;0.10;;
24901;SDS011;31328;51.402;0.016;2023-04-28T09:58:23;0.10;;;0.10;;
24901;SDS011;31328;51.402;0.016;2023-04-28T10:00:52;1.75;;;0.17;;
24901;SDS011;31328;51.402;0.016;2023-04-28T10:03:26;0.90;;;0.10;;
24901;SDS011;31328;51.402;0.016;2023-04-28T10:05:53;0.20;;;0.10;;
24901;SDS011;31328;51.402;0.016;2023-04-28T10:08:21;0.75;;;0.20;;
24901;SDS011;31328;51.402;0.016;2023-04-28T10:10:48;0.28;;;0.20;;
24901;SDS011;31328;51.402;0.016;2023-04-28T10:13:18;0.13;;;0.13;;
24901;SDS011;31328;51.402;0.016;2023-04-28T10:15:45;0.80;;;0.38;;
24901;SDS011;31328;51.402;0.016;2023-04-28T10:18:12;0.77;;;0.40;;
24901;SDS011;31328;51.402;0.016;2023-04-28T10:20:44;0.50;;;0.20;;
24901;SDS011;31328;51.402;0.016;2023-04-28T10:25:51;0.40;;;0.30;;
24901;SDS011;31328;51.402;0.016;2023-04-28T10:28:21;0.57;;;0.30;;
24901;SDS011;31328;51.402;0.016;2023-04-28T10:31:07;0.20;;;0.13;;
24901;SDS011;31328;51.402;0.016;2023-04-28T10:33:38;1.30;;;0.35;;
24901;SDS011;31328;51.402;0.016;2023-04-28T10:36:06;2.05;;;0.30;;
24901;SDS011;31328;51.402;0.016;2023-04-28T10:38:33;0.43;;;0.30;;
24901;SDS011;31328;51.402;0.016;2023-04-28T10:41:00;1.10;;;0.30;;
24901;SDS011;31328;51.402;0.016;2023-04-28T10:56:19;0.20;;;0.20;;
24901;SDS011;31328;51.402;0.016;2023-04-28T10:58:49;1.38;;;0.20;;
24901;SDS011;31328;51.402;0.016;2023-04-28T11:01:23;0.65;;;0.13;;
24901;SDS011;31328;51.402;0.016;2023-04-28T11:03:56;0.25;;;0.20;;
24901;SDS011;31328;51.402;0.016;2023-04-28T11:06:38;0.57;;;0.30;;
24901;SDS011;31328;51.402;0.016;2023-04-28T11:12:02;0.60;;;0.32;;
24901;SDS011;31328;51.402;0.016;2023-04-28T11:19:26;0.50;;;0.50;;
24901;SDS011;31328;51.402;0.016;2023-04-28T11:21:55;0.65;;;0.50;;
24901;SDS011;31328;51.402;0.016;2023-04-28T11:24:23;0.40;;;0.40;;
24901;SDS011;31328;51.402;0.016;2023-04-28T11:26:50;0.82;;;0.77;;
24901;SDS011;31328;51.402;0.016;2023-04-28T11:29:35;0.75;;;0.30;;
24901;SDS011;31328;51.402;0.016;2023-04-28T11:32:03;0.70;;;0.35;;
24901;SDS011;31328;51.402;0.016;2023-04-28T11:34:31;0.40;;;0.40;;
24901;SDS011;31328;51.402;0.016;2023-04-28T11:36:58;0.95;;;0.40;;
24901;SDS011;31328;51.402;0.016;2023-04-28T11:39:25;0.40;;;0.38;;
24901;SDS011;31328;51.402;0.016;2023-04-28T11:41:57;1.35;;;0.63;;
24901;SDS011;31328;51.402;0.016;2023-04-28T11:44:25;0.55;;;0.47;;
24901;SDS011;31328;51.402;0.016;2023-04-28T11:46:53;0.30;;;0.30;;
24901;SDS011;31328;51.402;0.016;2023-04-28T11:49:22;1.33;;;0.40;;
24901;SDS011;31328;51.402;0.016;2023-04-28T11:51:55;0.95;;;0.40;;
24901;SDS011;31328;51.402;0.016;2023-04-28T11:54:25;0.30;;;0.30;;
24901;SDS011;31328;51.402;0.016;2023-04-28T11:56:53;0.60;;;0.40;;
24901;SDS011;31328;51.402;0.016;2023-04-28T11:59:25;0.40;;;0.40;;
24901;SDS011;31328;51.402;0.016;2023-04-28T12:01:56;0.40;;;0.40;;
24901;SDS011;31328;51.402;0.016;2023-04-28T12:04:34;0.80;;;0.40;;
24901;SDS011;31328;51.402;0.016;2023-04-28T12:07:06;0.40;;;0.40;;
24901;SDS011;31328;51.402;0.016;2023-04-28T12:09:40;0.70;;;0.52;;
24901;SDS011;31328;51.402;0.016;2023-04-28T12:12:29;0.50;;;0.47;;
24901;SDS011;31328;51.402;0.016;2023-04-28T12:15:05;0.75;;;0.47;;
24901;SDS011;31328;51.402;0.016;2023-04-28T12:17:33;0.95;;;0.50;;
24901;SDS011;31328;51.402;0.016;2023-04-28T12:20:00;0.93;;;0.80;;
24901;SDS011;31328;51.402;0.016;2023-04-28T12:22:29;0.85;;;0.50;;
24901;SDS011;31328;51.402;0.016;2023-04-28T12:25:11;0.98;;;0.50;;
24901;SDS011;31328;51.402;0.016;2023-04-28T12:27:41;1.27;;;0.73;;
24901;SDS011;31328;51.402;0.016;2023-04-28T12:30:30;0.98;;;0.57;;
24901;SDS011;31328;51.402;0.016;2023-04-28T12:32:58;1.13;;;0.50;;
24901;SDS011;31328;51.402;0.016;2023-04-28T12:35:24;0.70;;;0.60;;
24901;SDS011;31328;51.402;0.016;2023-04-28T12:37:52;0.60;;;0.60;;
24901;SDS011;31328;51.402;0.016;2023-04-28T12:40:20;0.75;;;0.60;;
24901;SDS011;31328;51.402;0.016;2023-04-28T12:42:46;0.73;;;0.60;;
24901;SDS011;31328;51.402;0.016;2023-04-28T12:45:13;0.80;;;0.60;;
24901;SDS011;31328;51.402;0.016;2023-04-28T12:47:41;0.77;;;0.75;;
24901;SDS011;31328;51.402;0.016;2023-04-28T12:50:07;1.00;;;0.80;;
24901;SDS011;31328;51.402;0.016;2023-04-28T12:52:34;0.82;;;0.70;;
24901;SDS011;31328;51.402;0.016;2023-04-28T12:55:02;1.42;;;0.75;;
24901;SDS011;31328;51.402;0.016;2023-04-28T12:57:29;1.95;;;1.40;;
24901;SDS011;31328;51.402;0.016;2023-04-28T12:59:56;0.88;;;0.80;;
24901;SDS011;31328;51.402;0.016;2023-04-28T13:02:22;1.65;;;0.68;;
24901;SDS011;31328;51.402;0.016;2023-04-28T13:04:48;0.57;;;0.57;;
24901;SDS011;31328;51.402;0.016;2023-04-28T13:07:16;0.65;;;0.60;;
24901;SDS011;31328;51.402;0.016;2023-04-28T13:09:43;0.88;;;0.88;;
24901;SDS011;31328;51.402;0.016;2023-04-28T13:12:09;1.48;;;0.90;;
24901;SDS011;31328;51.402;0.016;2023-04-28T13:14:39;1.58;;;0.80;;
24901;SDS011;31328;51.402;0.016;2023-04-28T13:17:05;0.70;;;0.70;;
24901;SDS011;31328;51.402;0.016;2023-04-28T13:19:32;1.00;;;0.77;;
24901;SDS011;31328;51.402;0.016;2023-04-28T13:21:59;1.00;;;0.80;;
24901;SDS011;31328;51.402;0.016;2023-04-28T13:24:26;0.73;;;0.70;;
24901;SDS011;31328;51.402;0.016;2023-04-28T13:26:52;2.28;;;0.95;;
24901;SDS011;31328;51.402;0.016;2023-04-28T13:29:18;1.70;;;0.60;;
24901;SDS011;31328;51.402;0.016;2023-04-28T13:31:45;0.68;;;0.60;;
24901;SDS011;31328;51.402;0.016;2023-04-28T13:34:11;0.80;;;0.70;;
24901;SDS011;31328;51.402;0.016;2023-04-28T13:36:42;0.90;;;0.70;;
24901;SDS011;31328;51.402;0.016;2023-04-28T13:39:09;0.80;;;0.70;;
24901;SDS011;31328;51.402;0.016;2023-04-28T13:41:38;0.73;;;0.60;;
24901;SDS011;31328;51.402;0.016;2023-04-28T13:44:04;1.05;;;0.70;;
24901;SDS011;31328;51.402;0.016;2023-04-28T13:46:30;1.05;;;0.82;;
24901;SDS011;31328;51.402;0.016;2023-04-28T13:48:57;0.80;;;0.80;;
24901;SDS011;31328;51.402;0.016;2023-04-28T13:51:23;0.60;;;0.60;;
24901;SDS011;31328;51.402;0.016;2023-04-28T13:53:49;0.60;;;0.60;;
24901;SDS011;31328;51.402;0.016;2023-04-28T13:56:16;1.23;;;1.08;;
24901;SDS011;31328;51.402;0.016;2023-04-28T13:58:42;1.45;;;0.80;;
24901;SDS011;31328;51.402;0.016;2023-04-28T14:01:08;3.33;;;0.80;;
24901;SDS011;31328;51.402;0.016;2023-04-28T14:03:35;0.70;;;0.52;;
24901;SDS011;31328;51.402;0.016;2023-04-28T14:06:01;0.82;;;0.70;;
24901;SDS011;31328;51.402;0.016;2023-04-28T14:08:27;0.60;;;0.50;;
24901;SDS011;31328;51.402;0.016;2023-04-28T14:10:54;0.40;;;0.40;;
24901;SDS011;31328;51.402;0.016;2023-04-28T14:13:21;1.60;;;0.52;;
24901;SDS011;31328;51.402;0.016;2023-04-28T14:15:52;0.80;;;0.60;;
24901;SDS011;31328;51.402;0.016;2023-04-28T14:18:21;0.60;;;0.32;;
24901;SDS011;31328;51.402;0.016;2023-04-28T14:20:47;0.50;;;0.40;;
24901;SDS011;31328;51.402;0.016;2023-04-28T14:23:14;4.15;;;0.50;;
24901;SDS011;31328;51.402;0.016;2023-04-28T14:25:41;0.47;;;0.47;;
24901;SDS011;31328;51.402;0.016;2023-04-28T14:28:07;0.80;;;0.30;;
24901;SDS011;31328;51.402;0.016;2023-04-28T14:30:34;0.40;;;0.40;;
24901;SDS011;31328;51.402;0.016;2023-04-28T14:33:00;0.50;;;0.30;;
24901;SDS011;31328;51.402;0.016;2023-04-28T14:35:27;0.40;;;0.40;;
24901;SDS011;31328;51.402;0.016;2023-04-28T14:37:54;1.30;;;0.30;;
24901;SDS011;31328;51.402;0.016;2023-04-28T14:40:22;1.20;;;0.40;;
24901;SDS011;31328;51.402;0.016;2023-04-28T14:42:48;0.57;;;0.40;;
24901;SDS011;31328;51.402;0.016;2023-04-28T14:45:14;0.88;;;0.50;;
24901;SDS011;31328;51.402;0.016;2023-04-28T14:47:41;0.35;;;0.30;;
24901;SDS011;31328;51.402;0.016;2023-04-28T14:50:08;0.52;;;0.38;;
24901;SDS011;31328;51.402;0.016;2023-04-28T14:52:34;0.85;;;0.50;;
24901;SDS011;31328;51.402;0.016;2023-04-28T14:55:00;0.90;;;0.47;;
24901;SDS011;31328;51.402;0.016;2023-04-28T14:57:29;0.52;;;0.32;;
24901;SDS011;31328;51.402;0.016;2023-04-28T14:59:56;0.73;;;0.50;;
24901;SDS011;31328;51.402;0.016;2023-04-28T15:02:23;1.63;;;1.05;;
24901;SDS011;31328;51.402;0.016;2023-04-28T15:04:54;0.75;;;0.60;;
24901;SDS011;31328;51.402;0.016;2023-04-28T15:07:21;0.82;;;0.68;;
24901;SDS011;31328;51.402;0.016;2023-04-28T15:09:48;0.82;;;0.70;;
24901;SDS011;31328;51.402;0.016;2023-04-28T15:12:15;0.70;;;0.60;;
24901;SDS011;31328;51.402;0.016;2023-04-28T15:14:42;1.02;;;0.68;;
24901;SDS011;31328;51.402;0.016;2023-04-28T15:17:08;0.57;;;0.45;;
24901;SDS011;31328;51.402;0.016;2023-04-28T15:19:35;1.38;;;0.75;;